Time;durP1;ratioP1;P1;durP2;ratioP2;P2;SDS_P1;SDS_P2;PMS_P1;PMS_P2;Temp;Humidity;BMP_temperature;BMP_pressure;BME280_temperature;BME280_humidity;BME280_pressure;Samples;Min_cycle;Max_cycle;Signal;HPM_P1;HPM_P2
2021/08/08 00:00:11;;;;;;;4.15;1.70;;;;;;;27.54;40.46;99123.63;4484835;32;34375;-61
2021/08/08 00:02:38;;;;;;;6.70;1.92;;;;;;;27.54;40.42;99120.91;4484884;32;33785;-61
2021/08/08 00:05:10;;;;;;;4.50;1.75;;;;;;;27.54;40.41;99117.34;4484329;32;35346;-61
2021/08/08 00:07:38;;;;;;;3.00;1.50;;;;;;;27.53;40.39;99124.75;4483404;32;33827;-61
2021/08/08 00:10:06;;;;;;;4.57;1.80;;;;;;;27.53;40.35;99119.25;4484343;32;33493;-61
2021/08/08 00:12:35;;;;;;;4.15;1.83;;;;;;;27.52;40.33;99106.66;4484708;32;33628;-61
2021/08/08 00:15:04;;;;;;;7.65;2.03;;;;;;;27.53;40.29;99118.44;4484718;32;35241;-61
2021/08/08 00:17:32;;;;;;;3.33;1.77;;;;;;;27.52;40.25;99111.31;4484459;32;34101;-61
2021/08/08 00:19:59;;;;;;;4.05;1.98;;;;;;;27.53;40.27;99119.25;4484714;32;33675;-61
2021/08/08 00:22:27;;;;;;;4.68;1.73;;;;;;;27.52;40.39;99109.41;4482924;32;33966;-61
2021/08/08 00:24:54;;;;;;;3.42;1.52;;;;;;;27.52;40.59;99109.41;4484351;32;34073;-61
2021/08/08 00:27:22;;;;;;;5.53;1.83;;;;;;;27.52;40.60;99108.56;4482655;32;35100;-61
2021/08/08 00:29:49;;;;;;;2.33;1.45;;;;;;;27.53;40.63;99110.22;4484634;32;33822;-61
2021/08/08 00:32:17;;;;;;;3.90;1.98;;;;;;;27.53;40.63;99111.03;4484371;32;33846;-61
2021/08/08 00:34:45;;;;;;;4.70;1.80;;;;;;;27.52;40.56;99105.84;4484489;32;34897;-61
2021/08/08 00:37:13;;;;;;;7.62;2.00;;;;;;;27.52;40.55;99106.66;4484815;32;34109;-61
2021/08/08 00:39:41;;;;;;;7.97;3.42;;;;;;;27.52;40.50;99103.91;4484603;32;34181;-61
2021/08/08 00:42:10;;;;;;;8.45;2.10;;;;;;;27.51;40.42;99105.00;4484767;32;34650;-61
2021/08/08 00:44:37;;;;;;;3.83;2.10;;;;;;;27.50;40.35;99110.75;4483734;32;33881;-61
2021/08/08 00:47:05;;;;;;;4.57;1.87;;;;;;;27.51;40.30;99115.94;4484286;32;33650;-61
2021/08/08 00:49:33;;;;;;;4.18;1.87;;;;;;;27.51;40.41;99106.91;4484366;32;33685;-61
2021/08/08 00:52:02;;;;;;;8.30;2.12;;;;;;;27.50;40.45;99114.31;4475497;32;32621;-61
2021/08/08 00:54:30;;;;;;;3.83;1.67;;;;;;;27.51;40.31;99113.22;4468834;32;34543;-60
2021/08/08 00:56:58;;;;;;;4.30;1.70;;;;;;;27.51;40.37;99121.44;4468844;32;34719;-61
2021/08/08 00:59:26;;;;;;;3.45;1.95;;;;;;;27.50;40.35;99121.72;4468549;32;33602;-60
2021/08/08 01:01:53;;;;;;;3.45;1.87;;;;;;;27.50;40.51;99124.44;4474190;32;34253;-61
2021/08/08 01:04:27;;;;;;;3.40;1.50;;;;;;;27.49;40.60;99134.59;4482771;32;34526;-60
2021/08/08 01:06:59;;;;;;;5.12;1.50;;;;;;;27.48;40.73;99138.44;4482985;32;35134;-60
2021/08/08 01:09:27;;;;;;;6.05;2.00;;;;;;;27.49;40.71;99144.72;4482803;32;32294;-60
2021/08/08 01:11:55;;;;;;;5.32;1.83;;;;;;;27.48;40.69;99157.59;4482894;32;33937;-60
2021/08/08 01:14:22;;;;;;;4.35;1.90;;;;;;;27.47;40.68;99155.97;4469603;32;34173;-61
2021/08/08 01:16:50;;;;;;;9.38;2.00;;;;;;;27.49;40.56;99161.16;4469954;32;35084;-61
2021/08/08 01:19:20;;;;;;;3.92;2.05;;;;;;;27.48;40.50;99162.25;4482061;32;33551;-61
2021/08/08 01:21:48;;;;;;;;;;;;;;;27.48;40.44;99160.34;4484124;32;34879;-61
2021/08/08 01:24:16;;;;;;;4.32;2.17;;;;;;;27.57;40.17;99164.22;4483127;32;34362;-60
2021/08/08 01:26:45;;;;;;;4.28;1.90;;;;;;;27.50;40.37;99162.81;4482616;32;33909;-62
2021/08/08 01:29:13;;;;;;;5.45;2.10;;;;;;;27.46;40.45;99162.50;4482782;32;34164;-61
2021/08/08 01:31:51;;;;;;;4.68;1.87;;;;;;;27.46;40.50;99163.34;4483097;32;33671;-61
2021/08/08 01:34:19;;;;;;;21.13;2.17;;;;;;;27.46;40.60;99170.72;4483450;32;33979;-61
2021/08/08 01:36:47;;;;;;;7.90;1.80;;;;;;;27.46;40.79;99160.59;4483338;32;33763;-61
2021/08/08 01:39:18;;;;;;;5.70;2.12;;;;;;;27.45;40.91;99158.94;4482860;32;33438;-61
2021/08/08 01:41:54;;;;;;;5.12;2.35;;;;;;;27.45;41.00;99149.91;4483855;32;33574;-61
2021/08/08 01:44:24;;;;;;;5.47;1.67;;;;;;;27.45;40.80;99142.50;4470037;32;34017;-61
2021/08/08 01:46:56;;;;;;;3.75;1.87;;;;;;;27.43;40.87;99141.97;4469740;32;33636;-61
2021/08/08 01:49:26;;;;;;;6.20;1.90;;;;;;;27.44;40.99;99140.06;4482327;32;33120;-61
2021/08/08 01:51:54;;;;;;;;;;;;;;;27.42;40.96;99134.84;4483901;32;35016;-61
2021/08/08 01:54:22;;;;;;;5.40;2.45;;;;;;;27.54;40.74;99137.34;4468337;32;34005;-60
2021/08/08 01:56:51;;;;;;;5.65;2.47;;;;;;;27.45;40.88;99145.25;4468027;32;33895;-61
2021/08/08 01:59:19;;;;;;;4.28;2.05;;;;;;;27.42;41.01;99143.06;4479935;32;33665;-61
2021/08/08 02:01:47;;;;;;;7.65;2.45;;;;;;;27.43;41.02;99130.19;4483501;32;33465;-61
2021/08/08 02:04:20;;;;;;;3.03;1.95;;;;;;;27.41;41.03;99127.69;4483571;32;34398;-61
2021/08/08 02:06:48;;;;;;;5.85;2.00;;;;;;;27.41;41.13;99126.88;4483580;32;33927;-61
2021/08/08 02:09:16;;;;;;;6.35;1.98;;;;;;;27.40;41.08;99120.59;4482851;32;33486;-61
2021/08/08 02:11:44;;;;;;;4.78;2.17;;;;;;;27.40;41.09;99119.75;4483259;32;34086;-60
2021/08/08 02:14:12;;;;;;;3.97;1.90;;;;;;;27.39;41.15;99120.88;4483562;32;33523;-61
2021/08/08 02:16:39;;;;;;;5.37;2.20;;;;;;;27.40;41.15;99128.81;4483088;32;34189;-61
2021/08/08 02:19:07;;;;;;;4.07;2.17;;;;;;;27.39;40.99;99127.16;4483333;32;34319;-61
2021/08/08 02:21:35;;;;;;;4.45;1.83;;;;;;;27.38;41.08;99128.25;4483129;32;33901;-61
2021/08/08 02:24:03;;;;;;;4.65;2.40;;;;;;;27.38;41.14;99128.25;4483205;32;34901;-61
2021/08/08 02:26:31;;;;;;;6.20;2.08;;;;;;;27.38;41.06;99133.75;4482346;32;33463;-61
2021/08/08 02:28:59;;;;;;;6.78;1.92;;;;;;;27.38;41.08;99132.91;4483204;32;33417;-60
2021/08/08 02:31:38;;;;;;;8.40;2.62;;;;;;;27.38;41.20;99132.91;4483046;32;34874;-61
2021/08/08 02:34:06;;;;;;;5.62;2.22;;;;;;;27.40;41.17;99142.50;4482907;32;34225;-60
2021/08/08 02:36:35;;;;;;;4.03;1.92;;;;;;;27.37;41.21;99148.53;4481408;32;32729;-61
2021/08/08 02:39:03;;;;;;;4.28;2.08;;;;;;;27.38;41.25;99152.09;4483127;32;34225;-61
2021/08/08 02:41:31;;;;;;;3.33;1.87;;;;;;;27.38;41.31;99154.84;4483105;32;33966;-61
2021/08/08 02:44:00;;;;;;;3.42;2.17;;;;;;;27.37;41.31;99161.38;4482843;32;33964;-61
2021/08/08 02:46:29;;;;;;;3.53;1.80;;;;;;;27.37;41.33;99166.84;4485351;32;34188;-60
2021/08/08 02:48:56;;;;;;;6.78;2.30;;;;;;;27.35;41.32;99153.44;4485480;32;33637;-60
2021/08/08 02:51:24;;;;;;;5.53;1.92;;;;;;;27.36;41.43;99163.31;4485272;32;33985;-60
2021/08/08 02:53:52;;;;;;;5.20;2.00;;;;;;;27.35;41.46;99156.19;4485260;32;34051;-60
2021/08/08 02:56:20;;;;;;;4.97;2.08;;;;;;;27.34;41.45;99154.53;4485365;32;33573;-61
2021/08/08 02:58:48;;;;;;;4.28;1.80;;;;;;;27.34;41.47;99157.28;4484955;32;34197;-61
2021/08/08 03:01:15;;;;;;;4.78;2.20;;;;;;;27.34;41.52;99159.19;4484242;32;34839;-61
2021/08/08 03:03:43;;;;;;;5.07;1.98;;;;;;;27.34;41.55;99150.97;4485062;32;34100;-61
2021/08/08 03:06:11;;;;;;;4.85;2.12;;;;;;;27.34;41.51;99164.69;4484962;32;33755;-61
2021/08/08 03:08:50;;;;;;;7.93;2.28;;;;;;;27.32;41.59;99167.66;4483524;32;32906;-61
2021/08/08 03:11:18;;;;;;;5.15;2.30;;;;;;;27.33;41.52;99174.81;4484942;32;33884;-61
2021/08/08 03:13:46;;;;;;;5.22;2.30;;;;;;;27.32;41.68;99170.41;4485180;32;34791;-61
2021/08/08 03:16:14;;;;;;;11.35;2.62;;;;;;;27.33;41.69;99184.94;4485252;32;33846;-61
2021/08/08 03:18:43;;;;;;;4.78;2.45;;;;;;;27.32;41.65;99183.28;4482559;32;32270;-60
2021/08/08 03:21:10;;;;;;;5.93;2.97;;;;;;;27.31;41.65;99179.72;4485168;32;35396;-61
2021/08/08 03:23:39;;;;;;;8.80;2.60;;;;;;;27.31;41.62;99185.19;4484768;32;33962;-60
2021/08/08 03:26:07;;;;;;;5.10;2.22;;;;;;;27.31;41.69;99189.84;4484914;32;33877;-61
2021/08/08 03:28:35;;;;;;;8.18;2.10;;;;;;;27.31;41.73;99198.91;4485159;32;33370;-60
2021/08/08 03:31:03;;;;;;;4.80;2.42;;;;;;;27.30;41.75;99210.94;4485032;32;34005;-61
2021/08/08 03:33:31;;;;;;;4.45;2.15;;;;;;;27.29;41.83;99211.22;4484654;32;34189;-61
2021/08/08 03:35:59;;;;;;;6.00;2.55;;;;;;;27.27;41.94;99221.59;4484271;32;34828;-61
2021/08/08 03:38:26;;;;;;;6.40;2.55;;;;;;;27.27;41.91;99221.59;4485038;32;33814;-60
2021/08/08 03:40:54;;;;;;;5.15;2.42;;;;;;;27.27;41.88;99216.13;4482959;32;33921;-61
2021/08/08 03:43:21;;;;;;;6.43;2.55;;;;;;;27.25;41.88;99216.41;4484738;32;35121;-61
2021/08/08 03:45:51;;;;;;;5.27;2.43;;;;;;;27.26;41.85;99219.97;4485064;32;33832;-61
2021/08/08 03:48:18;;;;;;;5.57;2.40;;;;;;;27.25;41.81;99213.66;4484460;32;33243;-60
2021/08/08 03:50:46;;;;;;;5.03;2.35;;;;;;;27.24;41.75;99214.75;4484921;32;34264;-60
2021/08/08 03:53:13;;;;;;;5.22;2.25;;;;;;;27.23;41.75;99215.00;4484277;32;35525;-60
2021/08/08 03:55:41;;;;;;;7.40;2.20;;;;;;;27.23;41.73;99217.75;4483869;32;35095;-61
2021/08/08 03:58:09;;;;;;;5.43;2.28;;;;;;;27.21;41.70;99213.38;4484539;32;34114;-61
2021/08/08 04:00:37;;;;;;;4.70;2.42;;;;;;;27.20;41.67;99214.47;4484661;32;33885;-61
2021/08/08 04:03:06;;;;;;;5.30;1.90;;;;;;;27.19;41.65;99218.31;4484352;32;34166;-61
2021/08/08 04:05:34;;;;;;;3.53;2.20;;;;;;;27.19;41.65;99232.00;4484941;32;34589;-61
2021/08/08 04:08:01;;;;;;;5.40;1.95;;;;;;;27.18;41.66;99229.50;4483617;32;33562;-61
2021/08/08 04:10:29;;;;;;;4.70;2.20;;;;;;;27.17;41.64;99238.81;4468949;32;33820;-61
2021/08/08 04:12:57;;;;;;;7.60;2.42;;;;;;;27.17;41.70;99239.63;4468950;32;35612;-61
2021/08/08 04:15:24;;;;;;;5.75;2.00;;;;;;;27.17;41.68;99242.38;4468668;32;33866;-61
2021/08/08 04:17:52;;;;;;;5.05;2.00;;;;;;;27.18;41.72;99254.97;4467485;32;32337;-60
2021/08/08 04:20:20;;;;;;;4.57;2.15;;;;;;;27.17;41.72;99266.19;4468965;32;33947;-61
2021/08/08 04:22:48;;;;;;;4.80;2.50;;;;;;;27.16;41.75;99262.63;4468661;32;34098;-60
2021/08/08 04:25:17;;;;;;;4.60;2.15;;;;;;;27.16;41.75;99268.13;4468763;32;33693;-61
2021/08/08 04:27:44;;;;;;;5.22;2.00;;;;;;;27.15;41.77;99271.94;4468722;32;33340;-61
2021/08/08 04:30:12;;;;;;;3.42;2.00;;;;;;;27.15;41.79;99277.44;4468832;32;34631;-63
2021/08/08 04:32:40;;;;;;;4.15;2.20;;;;;;;27.16;41.80;99284.53;4468924;32;34273;-62
2021/08/08 04:35:08;;;;;;;4.60;2.22;;;;;;;27.16;41.78;99276.34;4468998;32;34578;-62
2021/08/08 04:37:36;;;;;;;7.50;2.12;;;;;;;27.14;41.79;99292.22;4468763;32;33423;-63
2021/08/08 04:40:04;;;;;;;6.45;2.28;;;;;;;27.15;41.78;99291.13;4468723;32;33982;-62
2021/08/08 04:42:36;;;;;;;8.23;2.65;;;;;;;27.15;41.90;99282.91;4468738;32;35163;-62
2021/08/08 04:45:04;;;;;;;4.20;1.90;;;;;;;27.15;41.90;99287.56;4468482;32;33978;-62
2021/08/08 04:47:31;;;;;;;3.95;1.95;;;;;;;27.16;41.92;99284.53;4468925;32;33459;-62
2021/08/08 04:50:00;;;;;;;3.37;1.70;;;;;;;27.15;41.97;99293.84;4468538;32;34685;-62
2021/08/08 04:52:36;;;;;;;5.07;1.60;;;;;;;27.16;41.92;99297.41;4468696;32;33988;-62
2021/08/08 04:55:04;;;;;;;6.47;1.75;;;;;;;27.16;41.97;99300.16;4468807;32;33958;-62
2021/08/08 04:57:32;;;;;;;3.05;1.75;;;;;;;27.17;42.09;99304.53;4469909;32;32829;-62
2021/08/08 04:59:59;;;;;;;10.68;2.00;;;;;;;27.16;42.01;99306.47;4483718;32;34160;-62
2021/08/08 05:02:27;;;;;;;3.70;1.62;;;;;;;27.16;42.03;99308.37;4484575;32;34012;-62
2021/08/08 05:04:55;;;;;;;3.55;1.52;;;;;;;27.16;42.13;99319.34;4484318;32;33879;-62
2021/08/08 05:07:23;;;;;;;3.50;1.50;;;;;;;27.15;42.11;99315.78;4484218;32;33479;-62
2021/08/08 05:09:50;;;;;;;5.40;1.73;;;;;;;27.16;42.14;99313.84;4484306;32;33476;-62
2021/08/08 05:12:18;;;;;;;2.35;1.30;;;;;;;27.15;42.10;99323.97;4484384;32;34059;-62
2021/08/08 05:14:47;;;;;;;3.22;1.35;;;;;;;27.14;42.11;99322.34;4484385;32;34042;-62
2021/08/08 05:17:14;;;;;;;3.22;1.30;;;;;;;27.15;42.14;99321.25;4483841;32;34465;-62
2021/08/08 05:19:42;;;;;;;3.35;1.20;;;;;;;27.15;42.19;99326.72;4484299;32;35436;-62
2021/08/08 05:22:10;;;;;;;3.80;1.45;;;;;;;27.15;42.16;99321.25;4484445;32;34312;-63
2021/08/08 05:24:38;;;;;;;4.53;1.30;;;;;;;27.14;42.20;99330.56;4484212;32;33528;-62
2021/08/08 05:27:06;;;;;;;2.17;1.08;;;;;;;27.15;42.16;99320.41;4484102;32;33411;-62
2021/08/08 05:29:33;;;;;;;5.53;1.48;;;;;;;27.16;42.14;99322.06;4484151;32;34112;-62
2021/08/08 05:32:01;;;;;;;6.05;1.17;;;;;;;27.14;42.22;99319.59;4484326;32;33924;-62
2021/08/08 05:34:28;;;;;;;5.32;1.20;;;;;;;27.14;42.13;99329.69;4483411;32;34595;-62
2021/08/08 05:36:56;;;;;;;3.22;1.10;;;;;;;27.13;42.19;99319.84;4483982;32;34190;-62
2021/08/08 05:39:23;;;;;;;3.33;1.20;;;;;;;27.13;42.03;99331.63;4483998;32;33969;-62
2021/08/08 05:41:51;;;;;;;1.52;0.90;;;;;;;27.12;42.07;99334.62;4482648;32;34207;-62
2021/08/08 05:44:19;;;;;;;2.28;1.08;;;;;;;27.11;42.10;99328.34;4484169;32;34051;-62
2021/08/08 05:46:46;;;;;;;4.15;0.93;;;;;;;27.09;42.19;99325.03;4483899;32;33422;-62
2021/08/08 05:49:16;;;;;;;1.52;0.70;;;;;;;27.08;42.17;99323.37;4483755;32;33295;-63
2021/08/08 05:51:45;;;;;;;1.60;1.00;;;;;;;27.09;41.95;99324.19;4483302;32;33932;-62
2021/08/08 05:54:12;;;;;;;3.05;1.15;;;;;;;27.07;42.01;99326.34;4483786;32;34162;-62
2021/08/08 05:56:41;;;;;;;1.65;0.90;;;;;;;27.06;42.11;99327.44;4483772;32;33817;-62
2021/08/08 05:59:09;;;;;;;2.85;0.90;;;;;;;27.05;42.10;99334.00;4483765;32;34837;-62
2021/08/08 06:01:37;;;;;;;1.60;0.70;;;;;;;27.04;42.10;99330.41;4483940;32;33623;-62
2021/08/08 06:04:05;;;;;;;3.05;1.00;;;;;;;27.05;41.93;99323.88;4483459;32;34004;-62
2021/08/08 06:06:33;;;;;;;2.90;0.80;;;;;;;27.02;41.94;99331.78;4483649;32;33447;-62
2021/08/08 06:09:01;;;;;;;2.70;0.90;;;;;;;27.04;42.01;99326.88;4483076;32;33909;-62
2021/08/08 06:11:29;;;;;;;1.08;0.60;;;;;;;27.02;41.97;99329.06;4483795;32;35098;-62
2021/08/08 06:13:57;;;;;;;0.88;0.60;;;;;;;27.03;42.07;99333.44;4483740;32;34606;-62
2021/08/08 06:16:24;;;;;;;1.80;0.80;;;;;;;27.02;42.22;99332.59;4483586;32;33478;-62
2021/08/08 06:18:52;;;;;;;1.87;0.65;;;;;;;27.03;42.14;99334.25;4483895;32;33539;-62
2021/08/08 06:21:19;;;;;;;2.30;0.82;;;;;;;27.06;42.09;99341.12;4485416;32;33741;-62
2021/08/08 06:23:47;;;;;;;1.25;0.70;;;;;;;27.05;42.17;99343.06;4485580;32;34228;-62
2021/08/08 06:26:15;;;;;;;1.50;0.57;;;;;;;27.05;42.24;99336.75;4484870;32;33359;-62
2021/08/08 06:28:43;;;;;;;3.30;0.80;;;;;;;27.05;42.19;99343.06;4485609;32;34889;-63
2021/08/08 06:31:10;;;;;;;5.22;0.90;;;;;;;27.05;42.21;99345.78;4485512;32;34857;-62
2021/08/08 06:33:38;;;;;;;1.52;0.80;;;;;;;27.06;42.23;99347.44;4485531;32;33928;-62
2021/08/08 06:36:05;;;;;;;2.87;0.90;;;;;;;27.06;42.30;99352.09;4485643;32;33443;-62
2021/08/08 06:38:38;;;;;;;0.80;0.50;;;;;;;27.08;42.33;99355.38;4485204;32;34016;-63
2021/08/08 06:41:05;;;;;;;8.52;0.90;;;;;;;27.06;42.33;99358.38;4484874;32;34565;-62
2021/08/08 06:43:33;;;;;;;1.23;0.80;;;;;;;27.06;42.28;99355.66;4485651;32;33862;-63
2021/08/08 06:46:01;;;;;;;3.05;0.77;;;;;;;27.05;42.35;99356.75;4485184;32;33268;-62
2021/08/08 06:48:34;;;;;;;1.50;0.80;;;;;;;27.06;42.38;99358.38;4485582;32;34765;-62
2021/08/08 06:51:02;;;;;;;2.60;1.08;;;;;;;27.06;42.50;99358.38;4485444;32;34878;-62
2021/08/08 06:53:29;;;;;;;2.60;0.88;;;;;;;27.06;42.56;99357.56;4485165;32;33780;-62
2021/08/08 06:56:00;;;;;;;3.40;0.90;;;;;;;27.07;42.56;99359.22;4485528;32;33249;-63
2021/08/08 06:58:30;;;;;;;2.60;0.70;;;;;;;27.05;42.52;99369.63;4485129;32;34137;-62
2021/08/08 07:00:57;;;;;;;3.95;1.15;;;;;;;27.05;42.62;99375.91;4485145;32;34099;-62
2021/08/08 07:03:25;;;;;;;3.35;0.80;;;;;;;27.05;42.70;99370.44;4485037;32;34381;-62
2021/08/08 07:05:53;;;;;;;4.72;0.90;;;;;;;27.05;42.59;99367.69;4485130;32;33614;-62
2021/08/08 07:08:21;;;;;;;1.25;0.90;;;;;;;27.06;42.58;99377.56;4485199;32;33566;-62
2021/08/08 07:10:48;;;;;;;1.95;1.00;;;;;;;27.07;42.73;99373.72;4485010;32;33964;-62
2021/08/08 07:13:16;;;;;;;1.77;0.90;;;;;;;27.07;42.78;99379.19;4485053;32;33890;-62
2021/08/08 07:15:44;;;;;;;1.83;0.88;;;;;;;27.08;42.82;99382.75;4485285;32;33602;-63
2021/08/08 07:18:11;;;;;;;1.17;0.73;;;;;;;27.09;42.82;99387.16;4485147;32;34690;-62
2021/08/08 07:20:40;;;;;;;1.87;1.10;;;;;;;27.09;42.90;99384.44;4485193;32;33958;-62
2021/08/08 07:23:07;;;;;;;3.28;0.80;;;;;;;27.11;42.85;99385.84;4483987;32;33965;-62
2021/08/08 07:25:35;;;;;;;7.62;1.15;;;;;;;27.12;43.01;99392.97;4485244;32;33478;-62
2021/08/08 07:28:03;;;;;;;9.00;1.33;;;;;;;27.14;43.11;99403.66;4484889;32;33682;-62
2021/08/08 07:30:32;;;;;;;12.37;1.25;;;;;;;27.14;43.00;99403.66;4484829;32;34181;-62
2021/08/08 07:33:00;;;;;;;2.92;0.80;;;;;;;27.15;42.91;99397.94;4485195;32;33603;-62
2021/08/08 07:35:28;;;;;;;3.50;0.98;;;;;;;27.18;42.77;99389.16;4484707;32;33459;-62
2021/08/08 07:37:56;;;;;;;1.48;0.80;;;;;;;27.19;42.91;99399.06;4483602;32;32602;-62
2021/08/08 07:40:24;;;;;;;2.95;0.88;;;;;;;27.19;42.81;99398.25;4484911;32;33949;-62
2021/08/08 07:42:51;;;;;;;2.45;0.98;;;;;;;27.19;42.77;99398.25;4484976;32;35062;-62
2021/08/08 07:45:20;;;;;;;6.05;0.90;;;;;;;27.20;42.80;99403.44;4485245;32;34168;-62
2021/08/08 07:47:48;;;;;;;2.30;0.80;;;;;;;27.24;42.77;99405.69;4485038;32;34186;-62
2021/08/08 07:50:16;;;;;;;2.10;0.85;;;;;;;27.24;42.77;99408.41;4484826;32;34836;-62
2021/08/08 07:52:44;;;;;;;2.58;0.80;;;;;;;27.23;42.82;99409.47;4485111;32;33964;-62
2021/08/08 07:55:12;;;;;;;4.32;0.88;;;;;;;27.25;42.86;99412.78;4484892;32;34214;-62
2021/08/08 07:57:40;;;;;;;2.87;1.08;;;;;;;27.25;42.96;99408.13;4484582;32;33532;-64
2021/08/08 08:00:08;;;;;;;2.72;1.00;;;;;;;27.27;42.89;99413.34;4484716;32;34204;-63
2021/08/08 08:02:44;;;;;;;4.72;0.80;;;;;;;27.25;43.02;99413.63;4484694;32;33792;-64
2021/08/08 08:05:13;;;;;;;4.40;1.10;;;;;;;27.26;43.04;99417.19;4484939;32;33558;-63
2021/08/08 08:07:40;;;;;;;1.27;0.80;;;;;;;27.27;43.01;99418.81;4484971;32;34137;-64
2021/08/08 08:10:14;;;;;;;3.47;1.00;;;;;;;27.27;43.00;99427.88;4484734;32;33990;-64
2021/08/08 08:12:41;;;;;;;1.20;0.90;;;;;;;27.28;42.98;99425.94;4484678;32;34175;-63
2021/08/08 08:15:28;;;;;;;1.35;0.65;;;;;;;27.28;42.97;99434.16;4484721;32;33292;-63
2021/08/08 08:17:56;;;;;;;4.07;1.12;;;;;;;27.28;42.89;99434.16;4484998;32;34106;-64
2021/08/08 08:20:23;;;;;;;4.97;0.98;;;;;;;27.28;42.87;99431.44;4484653;32;34107;-63
2021/08/08 08:22:51;;;;;;;4.65;0.98;;;;;;;27.28;42.87;99428.69;4484521;32;34059;-63
2021/08/08 08:25:19;;;;;;;3.37;1.08;;;;;;;27.28;42.84;99432.28;4484658;32;34163;-64
2021/08/08 08:27:47;;;;;;;3.25;1.10;;;;;;;27.29;42.87;99430.37;4484541;32;33874;-64
2021/08/08 08:30:15;;;;;;;5.62;0.88;;;;;;;27.29;42.84;99422.16;4484416;32;33962;-63
2021/08/08 08:32:43;;;;;;;1.77;0.90;;;;;;;27.28;42.79;99415.84;4484554;32;33919;-63
2021/08/08 08:35:11;;;;;;;2.45;0.95;;;;;;;27.29;42.78;99420.22;4483723;32;33669;-63
2021/08/08 08:37:38;;;;;;;1.55;0.90;;;;;;;27.28;42.77;99415.84;4484446;32;34034;-64
2021/08/08 08:40:08;;;;;;;3.85;0.85;;;;;;;27.29;42.75;99419.41;4484161;32;33949;-64
2021/08/08 08:42:40;;;;;;;3.05;0.90;;;;;;;27.29;42.73;99422.97;4483752;32;33660;-64
2021/08/08 08:45:08;;;;;;;1.65;1.05;;;;;;;27.30;42.71;99432.00;4483109;32;34316;-64
2021/08/08 08:47:36;;;;;;;1.83;0.90;;;;;;;27.30;42.71;99432.84;4483181;32;33613;-64
2021/08/08 08:50:05;;;;;;;1.67;0.95;;;;;;;27.30;42.70;99434.75;4470130;32;34840;-64
2021/08/08 08:52:33;;;;;;;1.52;0.82;;;;;;;27.30;42.71;99438.31;4484559;32;34042;-64
2021/08/08 08:55:01;;;;;;;1.87;0.80;;;;;;;27.32;42.66;99435.31;4470171;32;32643;-63
2021/08/08 08:57:29;;;;;;;2.35;0.80;;;;;;;27.30;42.65;99432.00;4470083;32;34065;-64
2021/08/08 09:00:02;;;;;;;1.37;0.82;;;;;;;27.31;42.65;99436.41;4483252;32;35044;-63
2021/08/08 09:02:30;;;;;;;1.17;0.85;;;;;;;27.30;42.66;99427.34;4483305;32;33862;-64
2021/08/08 09:04:58;;;;;;;2.08;1.02;;;;;;;27.30;42.63;99430.09;4483954;32;33490;-65
2021/08/08 09:07:29;;;;;;;2.60;0.73;;;;;;;27.31;42.63;99437.22;4484271;32;34392;-64
2021/08/08 09:09:57;;;;;;;2.15;0.95;;;;;;;27.31;42.62;99439.97;4484182;32;34124;-63
2021/08/08 09:12:26;;;;;;;2.03;0.73;;;;;;;27.32;42.62;99438.88;4484200;32;33962;-64
2021/08/08 09:14:58;;;;;;;1.07;0.90;;;;;;;27.32;42.61;99438.03;4483079;32;33390;-64
2021/08/08 09:17:26;;;;;;;0.98;0.62;;;;;;;27.33;42.57;99445.19;4484171;32;33946;-63
2021/08/08 09:20:00;;;;;;;1.83;0.90;;;;;;;27.32;42.56;99440.78;4482765;32;33745;-64
2021/08/08 09:22:29;;;;;;;2.45;0.75;;;;;;;27.33;42.58;99442.47;4484259;32;34304;-63
2021/08/08 09:25:01;;;;;;;1.37;0.90;;;;;;;27.32;42.57;99441.59;4484148;32;33672;-65
2021/08/08 09:27:37;;;;;;;2.28;1.00;;;;;;;27.32;42.62;99447.09;4483930;32;35155;-65
2021/08/08 09:30:21;;;;;;;4.97;0.95;;;;;;;27.33;43.12;99451.50;4483906;32;34104;-65
2021/08/08 09:33:00;;;;;;;1.40;0.70;;;;;;;27.38;43.41;99453.47;4482974;32;34816;-66
2021/08/08 09:35:33;;;;;;;4.32;1.00;;;;;;;27.35;43.65;99448.50;4482292;32;33365;-65
2021/08/08 09:38:01;;;;;;;3.00;1.10;;;;;;;27.36;43.73;99459.19;4483857;32;34775;-64
2021/08/08 09:40:32;;;;;;;5.07;1.17;;;;;;;27.37;43.83;99463.59;4483807;32;34240;-66
2021/08/08 09:43:01;;;;;;;2.17;0.82;;;;;;;27.39;43.88;99452.37;4482516;32;33662;-65
2021/08/08 09:45:42;;;;;;;1.83;0.88;;;;;;;27.40;43.91;99456.75;4482768;32;33859;-65
2021/08/08 09:48:11;;;;;;;4.80;0.90;;;;;;;27.42;43.92;99451.84;4482271;32;33876;-65
2021/08/08 09:50:40;;;;;;;3.03;1.00;;;;;;;27.40;43.92;99454.84;4483653;32;33962;-66
2021/08/08 09:53:10;;;;;;;2.55;1.00;;;;;;;27.44;43.80;99457.88;4482333;32;34498;-65
2021/08/08 09:55:38;;;;;;;2.17;0.90;;;;;;;27.44;43.84;99455.13;4485326;32;33431;-66
2021/08/08 09:58:24;;;;;;;3.85;0.90;;;;;;;27.45;43.87;99463.09;4484251;32;33192;-65
2021/08/08 10:00:58;;;;;;;1.77;0.90;;;;;;;27.50;43.78;99461.47;4485521;32;33985;-65
2021/08/08 10:03:26;;;;;;;2.72;1.10;;;;;;;27.49;43.81;99454.34;4485679;32;34899;-63
2021/08/08 10:05:54;;;;;;;2.72;1.05;;;;;;;27.49;43.86;99455.19;4485489;32;33369;-66
2021/08/08 10:08:23;;;;;;;2.53;1.08;;;;;;;27.50;43.93;99461.47;4484309;32;35660;-66
2021/08/08 10:10:52;;;;;;;3.87;1.20;;;;;;;27.52;43.93;99456.59;4485523;32;34117;-66
2021/08/08 10:13:22;;;;;;;2.47;1.10;;;;;;;27.52;43.97;99451.94;4485354;32;35106;-65
2021/08/08 10:15:51;;;;;;;3.70;1.10;;;;;;;27.54;43.93;99460.69;4485611;32;34468;-64
2021/08/08 10:18:21;;;;;;;13.13;1.50;;;;;;;27.54;43.87;99459.87;4485592;32;34002;-66
2021/08/08 10:20:49;;;;;;;7.95;1.40;;;;;;;27.54;43.87;99449.72;4484106;32;34792;-65
2021/08/08 10:23:17;;;;;;;3.65;1.20;;;;;;;27.55;43.86;99462.34;4484336;32;33946;-65
2021/08/08 10:25:49;;;;;;;3.40;1.42;;;;;;;27.56;43.88;99461.28;4485565;32;33126;-65
2021/08/08 10:28:16;;;;;;;3.80;1.40;;;;;;;27.58;43.94;99461.00;4484269;32;34890;-65
2021/08/08 10:30:44;;;;;;;3.15;0.90;;;;;;;27.59;43.90;99458.00;4484344;32;34001;-65
2021/08/08 10:33:11;;;;;;;2.72;1.17;;;;;;;27.60;43.91;99467.87;4484160;32;33963;-64
2021/08/08 10:35:41;;;;;;;3.62;1.50;;;;;;;27.60;43.86;99458.81;4484182;32;33141;-63
2021/08/08 10:38:09;;;;;;;2.33;1.10;;;;;;;27.61;43.82;99458.56;4485509;32;33889;-66
2021/08/08 10:40:37;;;;;;;2.03;1.00;;;;;;;27.63;43.75;99452.81;4485322;32;34159;-65
2021/08/08 10:43:05;;;;;;;2.37;1.10;;;;;;;27.62;43.72;99441.03;4485216;32;34273;-64
2021/08/08 10:45:34;;;;;;;1.90;1.10;;;;;;;27.63;43.68;99445.41;4485420;32;33557;-64
2021/08/08 10:48:03;;;;;;;2.53;1.00;;;;;;;27.63;43.73;99448.16;4485184;32;34632;-66
2021/08/08 10:50:49;;;;;;;2.95;1.12;;;;;;;27.64;43.73;99441.59;4483822;32;35349;-64
2021/08/08 10:53:21;;;;;;;2.62;1.12;;;;;;;27.68;43.67;99447.38;4485474;32;33981;-65
2021/08/08 10:56:10;;;;;;;5.18;1.30;;;;;;;27.65;43.73;99447.88;4485254;32;32561;-64
2021/08/08 10:58:39;;;;;;;3.87;1.20;;;;;;;27.69;43.65;99447.09;4476777;32;34397;-63
2021/08/08 11:01:26;;;;;;;6.18;1.70;;;;;;;27.66;43.78;99452.31;4472672;32;34081;-63
2021/08/08 11:03:59;;;;;;;3.72;1.25;;;;;;;27.70;43.75;99443.28;4484589;32;34114;-63
2021/08/08 11:06:28;;;;;;;3.65;1.20;;;;;;;27.68;43.82;99441.88;4484613;32;33577;-64
2021/08/08 11:09:00;;;;;;;3.47;1.23;;;;;;;27.67;43.80;99443.81;4484964;32;34000;-63
2021/08/08 11:11:33;;;;;;;4.25;1.27;;;;;;;27.68;43.83;99441.88;4484824;32;34867;-63
2021/08/08 11:14:16;;;;;;;3.15;1.10;;;;;;;27.66;43.77;99433.12;4484971;32;34203;-63
2021/08/08 11:16:45;;;;;;;3.70;1.10;;;;;;;27.70;43.73;99437.00;4484020;32;33034;-63
2021/08/08 11:19:13;;;;;;;6.75;1.40;;;;;;;27.66;43.79;99433.12;4485082;32;33737;-63
2021/08/08 11:21:40;;;;;;;7.97;1.10;;;;;;;27.66;43.77;99439.41;4484512;32;35262;-63
2021/08/08 11:24:09;;;;;;;7.85;1.52;;;;;;;27.66;43.78;99441.34;4485263;32;34584;-63
2021/08/08 11:26:37;;;;;;;3.45;1.15;;;;;;;27.65;43.77;99440.53;4484918;32;34386;-63
2021/08/08 11:29:05;;;;;;;3.50;1.25;;;;;;;27.68;43.67;99444.63;4483166;32;34032;-63
2021/08/08 11:31:34;;;;;;;9.68;1.20;;;;;;;27.67;43.64;99448.47;4483950;32;33837;-66
2021/08/08 11:34:06;;;;;;;3.65;1.08;;;;;;;27.65;43.60;99447.88;4484923;32;34102;-64
2021/08/08 11:36:34;;;;;;;5.62;1.15;;;;;;;27.65;43.60;99454.22;4484817;32;32966;-63
2021/08/08 11:39:05;;;;;;;4.28;1.37;;;;;;;27.65;43.61;99446.00;4484939;32;34776;-64
2021/08/08 11:41:32;;;;;;;4.55;1.05;;;;;;;27.65;43.55;99456.09;4483546;32;34846;-64